Time;durP1;ratioP1;P1;durP2;ratioP2;P2;SDS_P1;SDS_P2;PMS_P1;PMS_P2;Temp;Humidity;BMP_temperature;BMP_pressure;BME280_temperature;BME280_humidity;BME280_pressure;Samples;Min_cycle;Max_cycle;Signal;HPM_P1;HPM_P2
2023/09/11 00:00:06;;;;;;;21.45;15.75;;;19.50;99.90;;;;;;4994432;28;20440;-82
2023/09/11 00:02:31;;;;;;;21.08;16.05;;;19.50;99.90;;;;;;4979461;28;20126;-82
2023/09/11 00:04:57;;;;;;;23.17;15.65;;;19.60;99.90;;;;;;4992364;28;20126;-82
2023/09/11 00:07:24;;;;;;;21.77;15.27;;;19.50;99.90;;;;;;4971760;28;20388;-82
2023/09/11 00:09:52;;;;;;;18.48;15.35;;;19.50;99.90;;;;;;4965693;28;20485;-83
2023/09/11 00:12:18;;;;;;;22.48;15.73;;;19.50;99.90;;;;;;5015783;28;20038;-82
2023/09/11 00:14:44;;;;;;;20.60;14.77;;;19.50;99.90;;;;;;4999556;28;20088;-82
2023/09/11 00:17:10;;;;;;;25.20;15.57;;;19.40;99.90;;;;;;4971862;28;20050;-82
2023/09/11 00:19:35;;;;;;;19.45;15.63;;;19.40;99.90;;;;;;4970512;28;20275;-82
2023/09/11 00:22:02;;;;;;;23.10;15.48;;;19.40;99.90;;;;;;4995773;28;20497;-82
2023/09/11 00:24:28;;;;;;;22.35;15.18;;;19.40;99.90;;;;;;4985915;28;20209;-82
2023/09/11 00:26:53;;;;;;;26.70;14.77;;;19.50;99.90;;;;;;4968891;28;20355;-82
2023/09/11 00:29:19;;;;;;;21.85;15.63;;;19.50;99.90;;;;;;4978260;28;20516;-82
2023/09/11 00:31:44;;;;;;;28.92;15.65;;;19.50;99.90;;;;;;5014287;28;20045;-82
2023/09/11 00:34:10;;;;;;;22.25;15.30;;;19.50;99.90;;;;;;4969012;28;20089;-82
2023/09/11 00:36:36;;;;;;;22.25;15.07;;;19.50;99.90;;;;;;4987523;28;20057;-82
2023/09/11 00:39:02;;;;;;;22.95;15.45;;;19.40;99.90;;;;;;5000424;28;20042;-82
2023/09/11 00:41:27;;;;;;;23.23;15.32;;;19.40;99.90;;;;;;4974900;28;20129;-82
2023/09/11 00:43:53;;;;;;;25.65;15.82;;;19.40;99.90;;;;;;5014282;28;20034;-82
2023/09/11 00:46:19;;;;;;;21.77;15.80;;;19.40;99.90;;;;;;5004805;28;20052;-82
2023/09/11 00:48:53;;;;;;;20.67;15.32;;;19.40;99.90;;;;;;5019299;28;20038;-82
2023/09/11 00:51:18;;;;;;;32.67;15.82;;;19.40;99.90;;;;;;5010064;28;20049;-82
2023/09/11 00:53:44;;;;;;;23.13;15.18;;;19.40;99.90;;;;;;4995128;28;20042;-82
2023/09/11 00:56:10;;;;;;;20.38;14.48;;;19.40;99.90;;;;;;4985737;28;20042;-82
2023/09/11 00:58:36;;;;;;;18.38;14.82;;;19.30;99.90;;;;;;4999057;28;20397;-82
2023/09/11 01:01:05;;;;;;;22.02;14.48;;;19.30;99.90;;;;;;4998538;28;20081;-82
2023/09/11 01:03:31;;;;;;;19.73;15.68;;;19.20;99.90;;;;;;4967966;28;20308;-82
2023/09/11 01:05:57;;;;;;;20.85;14.30;;;19.20;99.90;;;;;;4976838;28;20243;-82
2023/09/11 01:08:23;;;;;;;23.63;15.60;;;19.30;99.90;;;;;;4966185;28;20050;-82
2023/09/11 01:10:49;;;;;;;24.35;16.00;;;19.20;99.90;;;;;;5000447;28;20509;-82
2023/09/11 01:13:15;;;;;;;28.10;15.75;;;19.20;99.90;;;;;;4966275;28;20116;-82
2023/09/11 01:15:49;;;;;;;19.92;15.23;;;19.20;99.90;;;;;;4987126;28;20041;-82
2023/09/11 01:18:26;;;;;;;24.92;15.50;;;19.10;99.90;;;;;;4968230;28;20084;-82
2023/09/11 01:21:06;;;;;;;25.55;15.10;;;19.20;99.90;;;;;;4976061;28;20113;-82
2023/09/11 01:23:50;;;;;;;21.77;15.50;;;19.10;99.90;;;;;;4984940;28;20320;-82
2023/09/11 01:27:07;;;;;;;20.05;15.00;;;19.10;99.90;;;;;;5011666;28;20359;-82
2023/09/11 01:29:37;;;;;;;19.08;15.63;;;19.10;99.90;;;;;;4957506;28;20043;-82
2023/09/11 01:32:05;;;;;;;28.38;16.63;;;19.10;99.90;;;;;;4965292;28;20156;-82
2023/09/11 01:34:31;;;;;;;20.85;15.27;;;19.20;99.90;;;;;;4959868;28;20043;-82
2023/09/11 01:36:56;;;;;;;21.52;16.05;;;19.10;99.90;;;;;;4984116;28;20485;-82
2023/09/11 01:39:22;;;;;;;26.15;15.65;;;19.10;99.90;;;;;;4984825;28;20145;-82
2023/09/11 01:41:49;;;;;;;27.08;15.50;;;19.00;99.90;;;;;;4977502;28;20125;-82
2023/09/11 01:44:23;;;;;;;25.83;15.80;;;19.00;99.90;;;;;;5024357;28;20446;-82
2023/09/11 01:46:51;;;;;;;22.55;15.60;;;19.00;99.90;;;;;;4979490;28;20573;-83
2023/09/11 01:49:21;;;;;;;25.85;16.15;;;19.00;99.90;;;;;;4990507;28;20037;-82
2023/09/11 01:51:49;;;;;;;22.40;15.90;;;18.90;99.90;;;;;;4990875;28;20129;-82
2023/09/11 01:54:16;;;;;;;20.17;16.05;;;18.90;99.90;;;;;;4974981;28;20042;-82
2023/09/11 01:56:42;;;;;;;25.45;16.65;;;18.90;99.90;;;;;;4971232;28;20258;-82
2023/09/11 01:59:07;;;;;;;24.40;16.27;;;18.90;99.90;;;;;;4964636;28;20390;-83
2023/09/11 02:01:33;;;;;;;27.08;16.58;;;18.90;99.90;;;;;;4967862;28;20465;-83
2023/09/11 02:04:02;;;;;;;29.55;15.80;;;18.90;99.90;;;;;;4992950;28;20113;-82
2023/09/11 02:06:27;;;;;;;23.92;15.98;;;18.80;99.90;;;;;;4994875;28;20122;-83
2023/09/11 02:08:54;;;;;;;23.88;16.02;;;18.80;99.90;;;;;;4973374;28;20125;-83
2023/09/11 02:11:22;;;;;;;22.27;16.33;;;18.80;99.90;;;;;;5001119;28;20480;-83
2023/09/11 02:13:47;;;;;;;31.23;17.50;;;18.80;99.90;;;;;;4974850;28;20085;-82
2023/09/11 02:16:13;;;;;;;20.05;15.13;;;18.80;99.90;;;;;;5008792;28;20073;-83
2023/09/11 02:18:39;;;;;;;24.98;17.10;;;18.80;99.90;;;;;;4962133;28;20117;-82
2023/09/11 02:21:05;;;;;;;24.88;16.60;;;18.80;99.90;;;;;;5012158;28;20042;-82
2023/09/11 02:23:31;;;;;;;26.65;16.77;;;18.80;99.90;;;;;;4986670;28;20101;-82
2023/09/11 02:25:57;;;;;;;23.70;16.48;;;18.70;99.90;;;;;;4990112;28;20461;-82
2023/09/11 02:28:22;;;;;;;23.55;16.15;;;18.70;99.90;;;;;;4967955;28;20035;-82
2023/09/11 02:30:49;;;;;;;27.38;16.27;;;18.80;99.90;;;;;;5008263;28;20047;-82
2023/09/11 02:33:14;;;;;;;27.55;15.60;;;18.70;99.90;;;;;;4963908;28;20038;-82
2023/09/11 02:35:41;;;;;;;25.38;15.45;;;18.70;99.90;;;;;;4966056;28;20450;-82
2023/09/11 02:38:09;;;;;;;27.25;16.98;;;18.70;99.90;;;;;;5000715;28;20109;-82
2023/09/11 02:40:36;;;;;;;28.00;15.93;;;18.70;99.90;;;;;;4971727;28;20043;-82
2023/09/11 02:43:02;;;;;;;27.00;15.90;;;18.60;99.90;;;;;;4997596;28;20034;-82
2023/09/11 02:45:28;;;;;;;26.83;16.92;;;18.60;99.90;;;;;;5014569;28;20127;-83
2023/09/11 02:47:54;;;;;;;22.85;16.10;;;18.70;99.90;;;;;;5008228;28;20062;-82
2023/09/11 02:50:19;;;;;;;33.67;16.75;;;18.70;99.90;;;;;;5013394;28;20398;-82
2023/09/11 02:52:45;;;;;;;23.45;16.52;;;18.70;99.90;;;;;;4985770;28;20508;-82
2023/09/11 02:55:11;;;;;;;25.67;16.80;;;18.70;99.90;;;;;;4990538;28;20034;-82
2023/09/11 02:57:38;;;;;;;27.92;16.88;;;18.70;99.90;;;;;;4989055;28;20872;-82
2023/09/11 03:00:06;;;;;;;27.20;16.95;;;18.70;99.90;;;;;;4981728;28;20486;-82
2023/09/11 03:02:32;;;;;;;25.00;16.95;;;18.80;99.90;;;;;;4972855;28;20115;-82
2023/09/11 03:04:58;;;;;;;26.15;16.90;;;18.80;99.90;;;;;;4972474;28;20061;-82
2023/09/11 03:07:24;;;;;;;29.50;17.23;;;18.80;99.90;;;;;;4971337;28;20537;-82
2023/09/11 03:09:49;;;;;;;26.75;16.02;;;18.80;99.90;;;;;;4967400;28;20105;-82
2023/09/11 03:12:15;;;;;;;25.75;16.58;;;18.80;99.90;;;;;;5005911;28;20053;-82
2023/09/11 03:14:41;;;;;;;27.70;17.65;;;18.80;99.90;;;;;;5017875;28;20053;-82
2023/09/11 03:17:09;;;;;;;33.45;17.48;;;18.70;99.90;;;;;;4975639;28;20115;-82
2023/09/11 03:19:36;;;;;;;26.98;17.27;;;18.70;99.90;;;;;;4972012;28;20038;-82
2023/09/11 03:22:02;;;;;;;24.77;17.20;;;18.70;99.90;;;;;;4971423;28;20035;-82
2023/09/11 03:24:27;;;;;;;29.35;18.20;;;18.70;99.90;;;;;;4986495;28;20041;-82
2023/09/11 03:26:53;;;;;;;28.73;17.80;;;18.70;99.90;;;;;;5026380;28;20509;-82
2023/09/11 03:29:19;;;;;;;26.80;17.25;;;18.70;99.90;;;;;;4979133;28;20038;-82
2023/09/11 03:31:44;;;;;;;27.88;16.85;;;18.70;99.90;;;;;;4967092;28;20035;-82
2023/09/11 03:34:10;;;;;;;26.90;16.92;;;18.70;99.90;;;;;;4963810;28;20804;-82
2023/09/11 03:36:36;;;;;;;26.10;17.38;;;18.70;99.90;;;;;;4968588;28;20453;-82
2023/09/11 03:39:02;;;;;;;29.45;19.15;;;18.70;99.90;;;;;;5018746;28;20146;-82
2023/09/11 03:41:29;;;;;;;27.17;17.63;;;18.70;99.90;;;;;;4966494;28;20041;-82
2023/09/11 03:43:54;;;;;;;26.80;17.38;;;18.60;99.90;;;;;;4977119;28;20043;-82
2023/09/11 03:46:20;;;;;;;29.95;17.15;;;18.50;99.90;;;;;;4982300;28;20113;-82
2023/09/11 03:48:47;;;;;;;34.90;16.83;;;18.50;99.90;;;;;;5000572;28;20048;-82
2023/09/11 03:51:13;;;;;;;29.38;18.50;;;18.60;99.90;;;;;;4979282;28;20043;-82
2023/09/11 03:53:42;;;;;;;27.30;16.80;;;18.50;99.90;;;;;;4972063;28;20326;-82
2023/09/11 03:56:12;;;;;;;23.52;17.35;;;18.50;99.90;;;;;;4991225;28;20395;-82
2023/09/11 03:58:39;;;;;;;29.83;16.83;;;18.50;99.90;;;;;;4983261;28;20060;-82
2023/09/11 04:01:04;;;;;;;25.23;17.58;;;18.50;99.90;;;;;;4987103;28;20072;-82
2023/09/11 04:03:30;;;;;;;27.90;18.02;;;18.50;99.90;;;;;;4971665;28;20691;-82
2023/09/11 04:05:56;;;;;;;29.30;18.02;;;18.40;99.90;;;;;;5010110;28;20523;-82
2023/09/11 04:08:21;;;;;;;29.08;18.05;;;18.40;99.90;;;;;;5005323;28;20857;-82
2023/09/11 04:10:47;;;;;;;24.02;16.95;;;18.40;99.90;;;;;;4989881;28;20198;-82
2023/09/11 04:13:13;;;;;;;25.42;16.90;;;18.30;99.90;;;;;;5022851;28;20042;-82
2023/09/11 04:15:39;;;;;;;25.42;16.73;;;18.30;99.90;;;;;;4968299;28;20038;-82
2023/09/11 04:18:05;;;;;;;27.52;16.52;;;18.30;99.90;;;;;;4987181;28;20091;-82
2023/09/11 04:20:33;;;;;;;29.55;17.05;;;18.30;99.90;;;;;;4981964;28;20067;-82
2023/09/11 04:23:00;;;;;;;27.77;17.25;;;18.30;99.90;;;;;;5020250;28;20460;-82
2023/09/11 04:25:27;;;;;;;27.05;15.60;;;18.30;99.90;;;;;;4989795;28;20046;-82
2023/09/11 04:27:52;;;;;;;28.63;16.30;;;18.20;99.90;;;;;;5004898;28;20103;-81
2023/09/11 04:30:18;;;;;;;23.83;16.40;;;18.20;99.90;;;;;;4996760;28;20047;-82
2023/09/11 04:32:44;;;;;;;30.65;17.20;;;18.20;99.90;;;;;;4980222;28;20125;-82
2023/09/11 04:35:10;;;;;;;27.25;17.05;;;18.20;99.90;;;;;;4982669;28;20128;-82
2023/09/11 04:37:36;;;;;;;25.27;17.27;;;18.10;99.90;;;;;;5015434;28;20046;-82
2023/09/11 04:40:05;;;;;;;27.20;16.50;;;18.20;99.90;;;;;;4969342;28;20517;-82
2023/09/11 04:42:31;;;;;;;32.17;18.38;;;18.10;99.90;;;;;;4996059;28;20117;-82
2023/09/11 04:44:59;;;;;;;23.42;16.63;;;18.10;99.90;;;;;;4978845;28;20046;-82
2023/09/11 04:47:32;;;;;;;26.13;17.42;;;18.00;99.90;;;;;;4968199;28;20050;-82
2023/09/11 04:50:01;;;;;;;24.52;15.93;;;17.90;99.90;;;;;;4997466;28;20066;-82
2023/09/11 04:52:27;;;;;;;22.30;16.67;;;17.90;99.90;;;;;;4986511;28;20088;-82
2023/09/11 04:54:53;;;;;;;24.27;16.27;;;18.00;99.90;;;;;;5003088;28;20124;-82
2023/09/11 04:57:19;;;;;;;25.08;17.15;;;18.00;99.90;;;;;;5017295;28;20084;-82
2023/09/11 04:59:45;;;;;;;24.08;16.48;;;18.00;99.90;;;;;;4994533;28;20050;-82
2023/09/11 05:02:11;;;;;;;30.05;17.65;;;18.00;99.90;;;;;;4961772;28;20049;-82
2023/09/11 05:04:38;;;;;;;20.08;16.17;;;18.00;99.90;;;;;;4966562;28;20038;-82
2023/09/11 05:07:04;;;;;;;23.15;16.48;;;17.90;99.90;;;;;;4966892;28;20397;-82
2023/09/11 05:09:33;;;;;;;26.63;17.13;;;18.00;99.90;;;;;;4981951;28;20042;-83
2023/09/11 05:12:01;;;;;;;30.08;17.85;;;18.10;99.90;;;;;;4986814;28;20085;-82
2023/09/11 05:14:26;;;;;;;28.95;16.88;;;18.10;99.90;;;;;;4969885;28;20918;-82
2023/09/11 05:16:52;;;;;;;27.90;16.30;;;18.10;99.90;;;;;;4972507;28;20126;-82
2023/09/11 05:19:18;;;;;;;26.35;16.60;;;18.20;99.90;;;;;;4960323;28;20049;-82
2023/09/11 05:21:43;;;;;;;25.33;16.48;;;18.20;99.90;;;;;;4970380;28;20490;-82
2023/09/11 05:24:09;;;;;;;27.42;16.00;;;18.30;99.90;;;;;;5011547;28;20043;-82
2023/09/11 05:26:35;;;;;;;29.38;15.32;;;18.30;99.90;;;;;;4970642;28;20046;-82
2023/09/11 05:29:00;;;;;;;27.83;16.20;;;18.40;99.90;;;;;;4968313;28;20068;-82
2023/09/11 05:31:26;;;;;;;29.63;16.70;;;18.50;99.90;;;;;;4984230;28;20405;-82
2023/09/11 05:33:52;;;;;;;25.90;16.05;;;18.50;99.90;;;;;;4987158;28;20561;-82
2023/09/11 05:36:17;;;;;;;25.00;16.25;;;18.60;99.90;;;;;;4988249;28;20100;-82
2023/09/11 05:38:44;;;;;;;23.70;15.77;;;18.60;99.90;;;;;;4990103;28;20139;-81
2023/09/11 05:41:10;;;;;;;22.80;15.43;;;18.70;99.90;;;;;;4968479;28;20046;-82
2023/09/11 05:43:36;;;;;;;25.35;15.73;;;18.80;99.90;;;;;;4970555;28;20092;-82
2023/09/11 05:46:02;;;;;;;22.73;15.68;;;18.90;99.90;;;;;;4986984;28;20061;-82
2023/09/11 05:48:27;;;;;;;25.70;15.38;;;18.90;99.90;;;;;;4969558;28;20042;-82
2023/09/11 05:50:53;;;;;;;25.05;15.77;;;19.00;99.90;;;;;;4987464;28;20476;-82
2023/09/11 05:53:19;;;;;;;20.63;14.32;;;19.10;99.90;;;;;;4983791;28;20042;-82
2023/09/11 05:55:45;;;;;;;28.75;15.95;;;19.10;99.90;;;;;;4989753;28;20049;-82
2023/09/11 05:58:11;;;;;;;30.92;15.98;;;19.20;99.90;;;;;;4981430;28;20042;-82
2023/09/11 06:00:36;;;;;;;27.27;15.52;;;19.30;99.90;;;;;;4981063;28;20413;-82
2023/09/11 06:03:02;;;;;;;25.38;15.73;;;19.40;99.90;;;;;;4987069;28;20108;-82
2023/09/11 06:05:31;;;;;;;26.17;15.13;;;19.50;99.90;;;;;;5007500;28;20457;-82
2023/09/11 06:07:56;;;;;;;22.33;14.63;;;19.60;99.90;;;;;;4963569;28;20522;-82
2023/09/11 06:10:25;;;;;;;28.60;15.57;;;19.70;99.90;;;;;;4984423;28;20231;-82
2023/09/11 06:12:52;;;;;;;22.30;15.32;;;19.80;99.90;;;;;;4969706;28;20042;-82
2023/09/11 06:15:17;;;;;;;24.08;15.35;;;19.90;99.90;;;;;;4983578;28;20038;-82
2023/09/11 06:17:43;;;;;;;29.40;15.27;;;19.90;99.90;;;;;;4983776;28;20136;-82
2023/09/11 06:20:09;;;;;;;27.42;14.90;;;20.00;99.90;;;;;;4984464;28;20416;-82
2023/09/11 06:22:41;;;;;;;26.15;14.80;;;20.10;99.90;;;;;;5001364;28;20049;-82
2023/09/11 06:25:07;;;;;;;23.02;14.48;;;20.10;99.90;;;;;;4973471;28;20347;-82
2023/09/11 06:27:34;;;;;;;28.23;15.27;;;20.20;99.90;;;;;;4979440;28;20083;-82
2023/09/11 06:30:01;;;;;;;26.75;14.32;;;20.30;99.90;;;;;;4969609;28;20042;-82
2023/09/11 06:32:26;;;;;;;23.17;14.85;;;20.40;99.90;;;;;;4985597;28;20378;-82
2023/09/11 06:34:52;;;;;;;20.10;14.15;;;20.50;99.90;;;;;;4970074;28;20049;-82
2023/09/11 06:37:17;;;;;;;24.60;14.10;;;20.50;99.90;;;;;;4997934;28;20431;-82
2023/09/11 06:39:43;;;;;;;24.90;15.25;;;20.60;99.90;;;;;;4989773;28;20466;-82
2023/09/11 06:42:19;;;;;;;23.63;14.75;;;20.70;99.90;;;;;;4979883;28;20111;-82
2023/09/11 06:44:44;;;;;;;29.30;14.52;;;20.80;99.90;;;;;;5013814;28;20402;-82
2023/09/11 06:47:13;;;;;;;25.60;15.40;;;21.00;99.90;;;;;;4986591;28;20053;-82
2023/09/11 06:49:39;;;;;;;26.08;14.27;;;21.00;99.90;;;;;;4989356;28;20050;-82
2023/09/11 06:52:04;;;;;;;22.52;13.73;;;21.10;99.90;;;;;;4968747;28;20437;-82
2023/09/11 06:54:32;;;;;;;21.27;14.00;;;21.20;99.90;;;;;;5018641;28;20152;-82
2023/09/11 06:56:58;;;;;;;27.45;14.80;;;21.30;99.90;;;;;;4991229;28;20060;-82
2023/09/11 06:59:23;;;;;;;23.80;14.00;;;21.40;99.90;;;;;;4984973;28;20533;-82
2023/09/11 07:01:50;;;;;;;23.20;14.13;;;21.50;99.90;;;;;;4985387;28;20477;-82
2023/09/11 07:04:19;;;;;;;18.65;13.77;;;21.60;99.90;;;;;;4972236;28;20046;-82
2023/09/11 07:06:45;;;;;;;22.48;13.40;;;21.70;99.90;;;;;;4972229;28;20085;-82
2023/09/11 07:09:11;;;;;;;19.10;12.90;;;21.80;99.90;;;;;;5002832;28;20525;-82
2023/09/11 07:11:37;;;;;;;22.58;12.52;;;21.90;99.90;;;;;;4985381;28;20077;-82
2023/09/11 07:14:05;;;;;;;20.55;12.43;;;22.10;99.90;;;;;;4988530;28;20034;-82
2023/09/11 07:16:31;;;;;;;25.20;13.00;;;22.20;99.90;;;;;;4988147;28;20088;-82
2023/09/11 07:18:57;;;;;;;22.83;12.65;;;22.30;99.90;;;;;;4972673;28;20053;-82
2023/09/11 07:21:23;;;;;;;22.15;12.35;;;22.40;99.90;;;;;;4968173;28;20496;-81
2023/09/11 07:23:48;;;;;;;18.20;12.32;;;22.60;99.90;;;;;;4970137;28;20038;-82
2023/09/11 07:26:14;;;;;;;22.55;12.55;;;22.70;99.90;;;;;;4982079;28;20049;-82
2023/09/11 07:29:12;;;;;;;24.00;12.13;;;22.70;99.90;;;;;;5012198;28;20121;-82
2023/09/11 07:31:38;;;;;;;28.00;12.30;;;22.80;99.90;;;;;;4972835;28;20050;-82
2023/09/11 07:34:03;;;;;;;19.27;12.40;;;22.80;99.90;;;;;;4964268;28;20053;-82
2023/09/11 07:36:29;;;;;;;17.45;10.95;;;22.90;99.90;;;;;;4975072;28;20042;-82
2023/09/11 07:38:57;;;;;;;18.83;11.57;;;22.90;99.90;;;;;;4988078;28;20045;-82
2023/09/11 07:41:23;;;;;;;19.92;11.65;;;23.10;99.90;;;;;;4972228;28;20049;-82
2023/09/11 07:43:49;;;;;;;16.35;11.10;;;23.30;99.90;;;;;;5020928;28;20046;-82
2023/09/11 07:46:20;;;;;;;21.05;11.50;;;23.40;99.90;;;;;;4969656;28;20401;-82
2023/09/11 07:48:47;;;;;;;17.92;11.23;;;23.40;99.90;;;;;;5004237;28;20169;-82
2023/09/11 07:51:12;;;;;;;18.67;10.90;;;23.50;99.90;;;;;;4986513;28;20052;-82
2023/09/11 07:53:42;;;;;;;23.30;11.98;;;23.60;99.90;;;;;;4967952;28;20043;-82
2023/09/11 07:56:10;;;;;;;19.63;11.43;;;23.70;99.90;;;;;;5017408;28;20033;-82
2023/09/11 07:58:36;;;;;;;19.48;10.88;;;23.70;99.90;;;;;;4987057;28;20049;-82
2023/09/11 08:01:05;;;;;;;22.60;11.48;;;23.70;99.90;;;;;;4967812;28;20132;-82
2023/09/11 08:03:32;;;;;;;15.57;9.82;;;23.80;99.90;;;;;;4964295;28;20447;-82
2023/09/11 08:05:59;;;;;;;24.65;11.18;;;23.80;99.90;;;;;;4978561;28;20100;-82
2023/09/11 08:08:26;;;;;;;16.65;9.50;;;23.90;99.90;;;;;;4985889;28;20338;-82
2023/09/11 08:10:52;;;;;;;15.70;9.32;;;24.10;99.90;;;;;;4985432;28;20095;-89
2023/09/11 08:13:18;;;;;;;14.88;10.30;;;24.10;99.90;;;;;;4970882;28;20129;-89
2023/09/11 08:15:44;;;;;;;22.08;10.50;;;24.20;99.90;;;;;;4978939;28;20043;-88
2023/09/11 08:18:10;;;;;;;16.48;9.02;;;24.30;99.90;;;;;;4971919;28;20049;-89
2023/09/11 08:20:36;;;;;;;15.40;8.85;;;24.50;99.90;;;;;;5014470;28;20591;-88
2023/09/11 08:23:02;;;;;;;16.33;9.23;;;24.50;99.90;;;;;;4987874;28;20120;-89
2023/09/11 08:25:29;;;;;;;16.90;8.73;;;24.60;99.90;;;;;;4985724;28;20165;-89
2023/09/11 08:27:54;;;;;;;18.30;9.40;;;24.70;99.90;;;;;;5018470;28;20043;-88
2023/09/11 08:30:20;;;;;;;18.30;9.30;;;24.80;99.90;;;;;;4999462;28;20091;-89
2023/09/11 08:32:46;;;;;;;18.40;8.82;;;24.80;99.90;;;;;;4995128;28;20078;-89
2023/09/11 08:35:12;;;;;;;17.83;9.63;;;24.90;99.90;;;;;;4995876;28;20039;-89
2023/09/11 08:37:40;;;;;;;14.45;8.57;;;25.10;99.90;;;;;;4990246;28;20428;-88
2023/09/11 08:40:06;;;;;;;19.15;9.30;;;25.20;99.90;;;;;;5000064;28;20057;-89
2023/09/11 08:42:32;;;;;;;15.52;8.75;;;25.40;99.90;;;;;;4965186;28;20529;-89
2023/09/11 08:44:58;;;;;;;15.63;8.20;;;25.50;99.90;;;;;;5015867;28;20044;-89
2023/09/11 08:47:30;;;;;;;13.65;7.68;;;25.60;99.90;;;;;;4967982;28;20940;-89
2023/09/11 08:50:02;;;;;;;17.88;8.85;;;25.60;99.90;;;;;;4984434;28;20046;-89
2023/09/11 08:52:29;;;;;;;16.83;8.15;;;25.70;99.90;;;;;;5013443;28;20092;-89
2023/09/11 08:54:59;;;;;;;13.07;8.05;;;25.90;99.90;;;;;;4989008;28;20159;-88
2023/09/11 08:57:27;;;;;;;13.95;7.63;;;25.90;99.90;;;;;;4982721;28;21123;-89
2023/09/11 08:59:59;;;;;;;15.90;7.65;;;26.00;99.90;;;;;;5015421;28;20113;-88
2023/09/11 09:02:26;;;;;;;13.13;7.32;;;26.20;99.90;;;;;;5000366;28;20047;-89
2023/09/11 09:04:52;;;;;;;19.42;8.55;;;26.20;99.90;;;;;;4995434;28;20050;-88
2023/09/11 09:07:19;;;;;;;15.32;7.85;;;26.30;99.90;;;;;;4998749;28;20504;-88
2023/09/11 09:09:45;;;;;;;11.90;7.40;;;26.40;99.90;;;;;;4999139;28;20026;-89
2023/09/11 09:12:11;;;;;;;16.70;8.30;;;26.50;99.90;;;;;;4982220;28;20193;-89
2023/09/11 09:14:39;;;;;;;14.35;7.90;;;26.40;99.90;;;;;;4997279;28;20189;-89
2023/09/11 09:17:06;;;;;;;17.40;7.90;;;26.50;99.90;;;;;;4998324;28;20049;-88
2023/09/11 09:19:33;;;;;;;14.40;8.05;;;26.50;99.90;;;;;;5003426;28;20046;-88
2023/09/11 09:22:05;;;;;;;11.90;7.82;;;26.60;99.90;;;;;;4998857;28;20050;-89
2023/09/11 09:24:34;;;;;;;13.45;7.68;;;26.70;99.90;;;;;;5013263;28;20038;-89
2023/09/11 09:27:02;;;;;;;13.68;7.93;;;26.70;99.90;;;;;;5003504;28;20036;-88
2023/09/11 09:29:36;;;;;;;12.73;7.88;;;26.70;99.90;;;;;;5019407;28;20517;-89
2023/09/11 10:46:34;;;;;;;12.68;8.30;;;28.60;99.90;;;;;;4985464;28;20064;-82
2023/09/11 10:49:12;;;;;;;13.27;8.10;;;28.90;99.90;;;;;;4969876;28;20034;-83
2023/09/11 10:51:38;;;;;;;13.38;7.97;;;28.80;99.90;;;;;;4961574;28;20053;-82
2023/09/11 10:54:10;;;;;;;12.05;7.63;;;28.80;99.90;;;;;;4964391;28;20042;-82
2023/09/11 10:56:43;;;;;;;12.13;7.70;;;29.00;99.90;;;;;;4953803;28;20814;-82
2023/09/11 11:02:52;;;;;;;18.40;8.52;;;29.20;99.90;;;;;;4980835;28;20106;-82
2023/09/11 11:05:20;;;;;;;9.73;8.00;;;29.00;99.90;;;;;;4968091;28;20038;-82
2023/09/11 11:07:50;;;;;;;12.35;7.80;;;29.10;99.90;;;;;;4955815;28;20110;-87
2023/09/11 11:10:19;;;;;;;13.55;8.30;;;29.10;99.90;;;;;;4950187;28;20049;-82
2023/09/11 11:13:06;;;;;;;13.75;8.80;;;29.30;99.90;;;;;;4966003;28;20057;-82
2023/09/11 11:15:33;;;;;;;15.05;8.82;;;29.20;99.90;;;;;;4954072;28;20841;-82
2023/09/11 11:18:30;;;;;;;11.80;8.30;;;29.00;99.90;;;;;;4951529;28;20104;-82
2023/09/11 11:21:04;;;;;;;14.93;8.98;;;29.00;99.90;;;;;;4961450;28;20050;-82
2023/09/11 11:23:32;;;;;;;16.73;8.88;;;29.10;99.90;;;;;;4952516;28;20101;-82
2023/09/11 11:26:09;;;;;;;13.52;7.88;;;29.20;99.90;;;;;;4954342;28;20038;-82
2023/09/11 11:28:45;;;;;;;14.82;8.85;;;29.30;99.90;;;;;;4964310;28;20034;-87
2023/09/11 11:31:18;;;;;;;16.25;8.48;;;29.30;99.90;;;;;;4968169;28;20082;-82
2023/09/11 11:33:46;;;;;;;13.43;8.70;;;29.50;99.90;;;;;;4954983;28;20042;-87
2023/09/11 11:36:15;;;;;;;12.90;8.55;;;29.30;99.90;;;;;;4956416;28;20431;-82
2023/09/11 11:38:42;;;;;;;15.23;9.63;;;29.40;99.90;;;;;;4953813;28;20060;-86
2023/09/11 11:41:12;;;;;;;13.90;9.13;;;29.20;99.90;;;;;;4964892;28;20101;-81
2023/09/11 11:43:44;;;;;;;14.20;9.90;;;29.60;99.90;;;;;;4974905;28;20089;-82
2023/09/11 11:46:15;;;;;;;13.50;9.38;;;29.30;99.90;;;;;;4955968;28;20121;-82
2023/09/11 11:48:44;;;;;;;13.35;9.02;;;29.30;99.90;;;;;;4954994;28;20553;-88
2023/09/11 11:51:13;;;;;;;10.23;7.75;;;29.20;99.90;;;;;;4968404;28;20041;-83
2023/09/11 11:53:39;;;;;;;10.18;7.57;;;29.40;99.90;;;;;;4953803;28;20340;-81
2023/09/11 11:56:05;;;;;;;9.68;7.50;;;29.50;99.90;;;;;;4974105;28;20130;-82
2023/09/11 11:58:31;;;;;;;12.45;8.45;;;29.60;99.90;;;;;;4972266;28;20073;-83
2023/09/11 12:01:00;;;;;;;13.68;8.25;;;29.50;99.90;;;;;;4959882;28;20070;-82
2023/09/11 12:03:28;;;;;;;11.10;6.68;;;29.70;99.90;;;;;;4965977;28;20223;-83
2023/09/11 12:05:54;;;;;;;12.52;7.10;;;29.80;99.90;;;;;;4957175;28;20124;-82
2023/09/11 12:08:25;;;;;;;10.50;7.07;;;29.60;99.90;;;;;;4954698;28;20038;-82
2023/09/11 12:10:54;;;;;;;15.13;7.55;;;29.60;99.90;;;;;;4952089;28;20042;-82
2023/09/11 12:13:25;;;;;;;11.43;7.38;;;29.70;99.90;;;;;;4968474;28;20080;-82
2023/09/11 12:16:04;;;;;;;10.23;7.20;;;29.70;99.90;;;;;;4949784;28;20153;-81
2023/09/11 12:18:37;;;;;;;8.23;6.45;;;29.90;99.90;;;;;;4959883;28;20041;-82
2023/09/11 12:21:12;;;;;;;10.20;5.78;;;30.00;99.90;;;;;;4951024;28;20053;-82
2023/09/11 12:23:40;;;;;;;11.00;6.55;;;29.80;99.90;;;;;;4971192;28;20034;-82
2023/09/11 12:26:06;;;;;;;10.30;6.32;;;29.80;99.90;;;;;;4971579;28;20042;-86
2023/09/11 12:28:34;;;;;;;10.35;5.97;;;29.60;99.90;;;;;;4949656;28;20373;-81
2023/09/11 12:31:00;;;;;;;11.38;6.50;;;29.80;99.90;;;;;;4972834;28;20579;-82
2023/09/11 12:33:38;;;;;;;10.65;6.35;;;29.60;99.90;;;;;;4961704;28;20034;-82
2023/09/11 12:36:11;;;;;;;12.80;5.60;;;29.60;99.90;;;;;;4954043;28;20050;-83
2023/09/11 12:38:37;;;;;;;10.18;6.95;;;29.70;99.90;;;;;;4952506;28;20459;-82
2023/09/11 12:41:06;;;;;;;10.15;6.60;;;29.80;99.90;;;;;;4988725;28;20134;-81
2023/09/11 12:43:38;;;;;;;14.52;7.00;;;29.80;99.90;;;;;;4965401;28;20043;-82
2023/09/11 12:46:05;;;;;;;8.13;5.85;;;29.90;99.90;;;;;;4952742;28;20070;-87
2023/09/11 12:48:41;;;;;;;9.73;5.57;;;29.90;99.90;;;;;;4955964;28;20582;-81
2023/09/11 12:51:07;;;;;;;9.32;5.38;;;29.80;99.90;;;;;;4966843;28;20061;-82
2023/09/11 12:53:33;;;;;;;6.70;4.40;;;29.80;99.90;;;;;;4970018;28;20513;-82
2023/09/11 12:56:09;;;;;;;8.18;4.60;;;29.70;1.00;;;;;;4954746;28;20070;-82
2023/09/11 12:58:38;;;;;;;7.18;4.63;;;29.80;72.90;;;;;;4965907;28;20161;-82
2023/09/11 13:01:11;;;;;;;6.72;4.10;;;30.00;1.00;;;;;;4955542;28;20324;-87
2023/09/11 13:03:45;;;;;;;6.47;4.70;;;30.00;99.90;;;;;;4960620;28;20102;-82
2023/09/11 13:06:14;;;;;;;6.82;4.35;;;30.00;1.00;;;;;;4971961;28;20544;-82
2023/09/11 13:08:41;;;;;;;7.00;4.20;;;30.10;99.90;;;;;;4955859;28;20077;-82
2023/09/11 13:11:06;;;;;;;8.43;5.13;;;30.10;99.90;;;;;;4955943;28;20045;-82
2023/09/11 13:13:35;;;;;;;7.10;5.00;;;30.10;99.90;;;;;;4952255;28;20039;-82
2023/09/11 13:16:01;;;;;;;7.05;4.70;;;30.10;99.90;;;;;;4966716;28;20038;-82
2023/09/11 13:18:26;;;;;;;9.25;4.50;;;30.10;99.90;;;;;;4957277;28;20052;-82
2023/09/11 13:20:53;;;;;;;5.20;3.95;;;30.40;99.90;;;;;;4953686;28;20038;-82
2023/09/11 13:23:19;;;;;;;5.38;3.85;;;30.60;1.00;;;;;;4964889;28;20092;-86
2023/09/11 13:25:54;;;;;;;5.38;3.70;;;30.40;1.00;;;;;;4953681;28;20046;-82
2023/09/11 13:28:19;;;;;;;10.10;4.30;;;30.20;1.00;;;;;;4951858;28;20461;-82
2023/09/11 13:30:45;;;;;;;9.75;4.35;;;29.90;99.90;;;;;;4948468;28;20147;-82
2023/09/11 13:33:10;;;;;;;5.47;3.65;;;29.90;99.90;;;;;;4954390;28;20046;-82
2023/09/11 13:35:36;;;;;;;6.72;3.38;;;29.80;99.90;;;;;;4966247;28;21131;-82
2023/09/11 13:38:05;;;;;;;7.13;3.60;;;29.90;1.00;;;;;;4956194;28;20200;-82
2023/09/11 13:40:33;;;;;;;5.25;3.78;;;29.70;99.90;;;;;;4953448;28;20038;-82
2023/09/11 13:43:02;;;;;;;6.72;3.90;;;29.60;99.90;;;;;;4947500;28;20444;-83
2023/09/11 13:45:37;;;;;;;12.25;4.30;;;29.90;1.00;;;;;;4956806;28;20470;-82
2023/09/11 13:48:06;;;;;;;6.72;4.70;;;29.90;97.40;;;;;;4958894;28;20551;-82
2023/09/11 13:50:35;;;;;;;10.82;5.20;;;30.30;99.90;;;;;;4967537;28;20042;-82